createdAt,value
2022-09-27T00:00:44.671Z,9.60
2022-09-27T00:04:46.229Z,9.40
2022-09-27T00:08:47.811Z,9.40
2022-09-27T00:12:49.449Z,9.40
2022-09-27T00:16:51.153Z,9.30
2022-09-27T00:20:53.247Z,9.30
2022-09-27T00:24:55.184Z,9.30
2022-09-27T00:28:56.949Z,9.20
2022-09-27T00:32:58.490Z,9.30
2022-09-27T00:37:00.247Z,9.30
2022-09-27T00:41:01.992Z,9.10
2022-09-27T00:45:07.208Z,9.10
2022-09-27T00:49:11.853Z,9.10
2022-09-27T00:53:46.601Z,9.00
2022-09-27T00:57:48.540Z,9.10
2022-09-27T01:01:51.207Z,9.10
2022-09-27T01:05:53.301Z,9.10
2022-09-27T01:09:54.836Z,9.10
2022-09-27T01:14:09.316Z,9.20
2022-09-27T01:18:19.077Z,9.20
2022-09-27T01:22:24.912Z,9.20
2022-09-27T01:26:26.562Z,9.30
2022-09-27T01:30:29.803Z,9.20
2022-09-27T01:34:46.675Z,9.20
2022-09-27T01:38:57.084Z,9.20
2022-09-27T01:43:09.811Z,9.30
2022-09-27T01:47:34.325Z,9.30
2022-09-27T01:51:41.937Z,9.30
2022-09-27T01:55:44.501Z,9.30
2022-09-27T01:59:49.260Z,9.20
2022-09-27T02:03:51.620Z,9.30
2022-09-27T02:07:56.583Z,9.20
2022-09-27T02:12:01.885Z,9.30
2022-09-27T02:16:22.871Z,9.20
2022-09-27T02:20:24.592Z,9.20
2022-09-27T02:28:43.824Z,9.20
2022-09-27T02:32:45.572Z,9.20
2022-09-27T02:36:48.470Z,9.10
2022-09-27T02:40:51.407Z,9.10
2022-09-27T02:44:53.590Z,9.10
2022-09-27T02:49:21.764Z,9.00
2022-09-27T02:53:34.969Z,8.90
2022-09-27T02:57:56.546Z,8.90
2022-09-27T03:02:14.148Z,8.80
2022-09-27T03:06:17.748Z,8.70
2022-09-27T03:10:21.010Z,8.70
2022-09-27T03:14:33.532Z,8.60
2022-09-27T03:18:44.152Z,8.60
2022-09-27T03:22:49.040Z,8.60
2022-09-27T03:26:50.804Z,8.60
2022-09-27T03:30:53.407Z,8.60
2022-09-27T03:34:55.444Z,8.60
2022-09-27T03:39:19.040Z,8.60
2022-09-27T03:43:20.843Z,8.60
2022-09-27T03:47:24.715Z,8.60
2022-09-27T03:51:31.083Z,8.60
2022-09-27T03:55:33.921Z,8.70
2022-09-27T03:59:35.719Z,8.60
2022-09-27T04:03:40.394Z,8.60
2022-09-27T04:07:49.366Z,8.60
2022-09-27T04:11:52.137Z,8.60
2022-09-27T04:15:54.732Z,8.60
2022-09-27T04:19:56.647Z,8.60
2022-09-27T04:24:08.218Z,8.60
2022-09-27T04:28:09.986Z,8.60
2022-09-27T04:32:13.010Z,8.60
2022-09-27T04:36:36.041Z,8.50
2022-09-27T04:40:39.400Z,8.60
2022-09-27T04:44:41.278Z,8.50
2022-09-27T04:49:03.407Z,8.50
2022-09-27T04:53:07.516Z,8.40
2022-09-27T04:57:10.176Z,8.50
2022-09-27T05:01:14.907Z,8.50
2022-09-27T05:05:37.719Z,8.50
2022-09-27T05:09:42.462Z,8.50
2022-09-27T05:14:07.312Z,8.50
2022-09-27T05:18:08.140Z,8.50
2022-09-27T05:22:12.160Z,8.50
2022-09-27T05:26:17.020Z,8.50
2022-09-27T05:30:21.728Z,8.50
2022-09-27T05:34:23.332Z,8.50
2022-09-27T05:38:25.621Z,8.50
2022-09-27T05:42:27.210Z,8.50
2022-09-27T05:46:29.062Z,8.50
2022-09-27T05:50:31.000Z,8.50
2022-09-27T05:58:49.076Z,8.50
2022-09-27T06:02:59.852Z,8.60
2022-09-27T06:07:01.485Z,8.60
2022-09-27T06:11:05.413Z,8.60
2022-09-27T06:15:13.884Z,8.60
2022-09-27T06:19:15.977Z,8.60
2022-09-27T06:23:22.638Z,8.70
2022-09-27T06:27:26.284Z,8.70
2022-09-27T06:31:30.286Z,8.70
2022-09-27T06:35:43.234Z,8.70
2022-09-27T06:39:48.793Z,8.60
2022-09-27T06:43:53.234Z,8.70
2022-09-27T06:48:02.521Z,8.60
2022-09-27T06:52:06.008Z,8.70
2022-09-27T06:56:07.601Z,8.80
2022-09-27T07:00:27.284Z,8.90
2022-09-27T07:04:29.471Z,9.00
2022-09-27T07:08:36.095Z,9.10
2022-09-27T07:12:44.645Z,9.20
2022-09-27T07:16:48.774Z,9.00
2022-09-27T07:20:56.869Z,9.10
2022-09-27T07:25:01.629Z,9.20
2022-09-27T07:29:03.473Z,9.20
2022-09-27T07:33:06.212Z,9.20
2022-09-27T07:37:07.886Z,9.30
2022-09-27T07:41:11.048Z,9.30
2022-09-27T07:45:13.231Z,9.40
2022-09-27T07:49:14.938Z,9.60
2022-09-27T07:53:19.470Z,9.70
2022-09-27T07:57:22.592Z,9.60
2022-09-27T08:01:24.664Z,9.60
2022-09-27T08:05:26.573Z,9.70
2022-09-27T08:09:28.339Z,9.80
2022-09-27T08:13:29.989Z,9.80
2022-09-27T08:17:31.842Z,9.80
2022-09-27T08:21:33.506Z,10.20
2022-09-27T08:25:35.272Z,10.20
2022-09-27T08:29:37.720Z,10.20
2022-09-27T08:33:41.597Z,10.30
2022-09-27T08:37:43.393Z,10.40
2022-09-27T08:41:49.267Z,10.40
2022-09-27T08:45:54.471Z,10.40
2022-09-27T08:50:17.033Z,10.70
2022-09-27T08:54:24.554Z,10.70
2022-09-27T08:58:35.779Z,11.00
2022-09-27T09:02:37.784Z,10.90
2022-09-27T09:06:59.195Z,11.10
2022-09-27T09:11:23.032Z,11.10
2022-09-27T09:15:54.338Z,11.10
2022-09-27T09:20:16.805Z,11.10
2022-09-27T09:24:37.481Z,11.30
2022-09-27T09:29:06.280Z,11.10
2022-09-27T09:33:11.226Z,11.40
2022-09-27T09:37:18.527Z,11.70
2022-09-27T09:41:46.398Z,11.70
2022-09-27T09:45:55.070Z,11.80
2022-09-27T09:50:02.444Z,12.10
2022-09-27T09:54:23.080Z,12.30
2022-09-27T09:58:27.944Z,11.80
2022-09-27T10:02:33.868Z,11.80
2022-09-27T10:06:36.192Z,11.80
2022-09-27T10:10:37.920Z,12.00
2022-09-27T10:14:40.494Z,11.90
2022-09-27T10:18:49.670Z,12.00
2022-09-27T10:22:55.499Z,11.90
2022-09-27T10:26:58.753Z,11.60
2022-09-27T10:31:32.806Z,11.80
2022-09-27T10:35:36.876Z,11.90
2022-09-27T10:39:39.344Z,11.70
2022-09-27T10:43:40.996Z,11.50
2022-09-27T10:47:42.699Z,11.30
2022-09-27T10:51:45.213Z,11.40
2022-09-27T10:55:48.502Z,11.20
2022-09-27T10:59:52.602Z,11.20
2022-09-27T11:03:55.994Z,11.30
2022-09-27T11:08:05.880Z,11.00
2022-09-27T11:12:13.022Z,10.90
2022-09-27T11:16:28.898Z,11.10
2022-09-27T11:20:30.607Z,11.10
2022-09-27T11:24:50.472Z,11.00
2022-09-27T11:29:03.887Z,10.90
2022-09-27T11:33:24.165Z,10.60
2022-09-27T11:37:46.019Z,11.10
2022-09-27T11:42:06.515Z,11.20
2022-09-27T11:46:17.999Z,11.30
2022-09-27T11:50:42.863Z,11.30
2022-09-27T11:54:51.834Z,11.10
2022-09-27T11:59:02.757Z,11.20
2022-09-27T12:03:04.322Z,11.10
2022-09-27T12:07:18.618Z,11.10
2022-09-27T12:11:20.123Z,10.80
2022-09-27T12:15:27.034Z,10.80
2022-09-27T12:19:29.762Z,10.60
2022-09-27T12:23:36.658Z,11.00
2022-09-27T12:28:01.971Z,11.00
2022-09-27T12:32:24.278Z,10.90
2022-09-27T12:36:28.454Z,10.90
2022-09-27T12:40:41.125Z,11.00
2022-09-27T12:44:45.918Z,10.90
2022-09-27T12:49:05.320Z,11.20
2022-09-27T12:53:15.725Z,11.00
2022-09-27T12:57:23.552Z,11.40
2022-09-27T13:01:31.042Z,10.90
2022-09-27T13:05:44.987Z,11.00
2022-09-27T13:10:14.161Z,10.80
2022-09-27T13:14:27.364Z,10.50
2022-09-27T13:18:39.558Z,9.90
2022-09-27T13:22:42.824Z,10.00
2022-09-27T13:26:49.794Z,10.40
2022-09-27T13:31:03.473Z,10.40
2022-09-27T13:35:17.973Z,10.30
2022-09-27T13:39:21.141Z,10.10
2022-09-27T13:43:42.224Z,10.30
2022-09-27T13:47:56.537Z,10.10
2022-09-27T13:52:03.851Z,10.10
2022-09-27T13:56:51.491Z,9.90
2022-09-27T14:00:56.098Z,9.90
2022-09-27T14:04:59.774Z,9.80
2022-09-27T14:09:04.266Z,9.80
2022-09-27T14:13:05.989Z,10.00
2022-09-27T14:17:19.107Z,10.10
2022-09-27T14:21:29.193Z,10.30
2022-09-27T14:25:39.711Z,10.40
2022-09-27T14:29:46.961Z,10.50
2022-09-27T14:33:49.472Z,10.70
2022-09-27T14:37:52.299Z,10.80
2022-09-27T14:41:54.047Z,10.70
2022-09-27T14:46:00.277Z,10.70
2022-09-27T14:50:11.140Z,10.70
2022-09-27T14:54:19.615Z,10.60
2022-09-27T14:58:43.064Z,10.70
2022-09-27T15:02:46.562Z,10.90
2022-09-27T15:06:49.531Z,10.80
2022-09-27T15:10:51.591Z,9.70
2022-09-27T15:14:54.420Z,8.90
2022-09-27T15:19:17.588Z,8.60
2022-09-27T15:23:26.085Z,8.60
2022-09-27T15:27:28.523Z,9.10
2022-09-27T15:31:31.111Z,9.30
2022-09-27T15:35:34.914Z,9.70
2022-09-27T15:39:40.052Z,9.80
2022-09-27T15:43:49.157Z,10.00
2022-09-27T15:47:50.703Z,10.20
2022-09-27T15:51:53.315Z,10.40
2022-09-27T15:55:55.106Z,10.20
2022-09-27T15:59:59.925Z,10.20
2022-09-27T16:04:01.783Z,10.30
2022-09-27T16:08:03.378Z,10.30
2022-09-27T16:12:07.779Z,10.50
2022-09-27T16:16:17.165Z,10.40
2022-09-27T16:20:27.206Z,10.50
2022-09-27T16:24:29.086Z,10.50
2022-09-27T16:28:33.607Z,10.60
2022-09-27T16:32:48.218Z,10.40
2022-09-27T16:36:50.010Z,10.30
2022-09-27T16:40:51.641Z,10.20
2022-09-27T16:44:53.889Z,10.30
2022-09-27T16:48:55.801Z,10.30
2022-09-27T16:52:57.540Z,10.30
2022-09-27T16:57:02.192Z,10.30
2022-09-27T17:01:03.857Z,10.20
2022-09-27T17:05:15.516Z,10.20
2022-09-27T17:09:17.104Z,10.20
2022-09-27T17:13:18.965Z,10.10
2022-09-27T17:17:22.881Z,10.20
2022-09-27T17:21:24.457Z,10.10
2022-09-27T17:25:26.050Z,10.10
2022-09-27T17:29:27.767Z,10.10
2022-09-27T17:33:29.761Z,10.00
2022-09-27T17:37:31.458Z,10.00
2022-09-27T17:41:40.179Z,10.00
2022-09-27T17:45:41.931Z,10.00
2022-09-27T17:50:02.289Z,10.00
2022-09-27T17:54:08.957Z,10.00
2022-09-27T17:58:10.584Z,10.00
2022-09-27T18:02:12.357Z,10.00
2022-09-27T18:06:16.135Z,10.10
2022-09-27T18:10:17.967Z,10.10
2022-09-27T18:14:28.579Z,10.10
2022-09-27T18:18:34.547Z,10.10
2022-09-27T18:22:39.237Z,10.10
2022-09-27T18:26:41.247Z,10.00
2022-09-27T18:30:42.818Z,10.00
2022-09-27T18:35:09.943Z,10.00
2022-09-27T18:39:11.306Z,9.90
2022-09-27T18:43:12.975Z,10.00
2022-09-27T18:47:14.725Z,10.00
2022-09-27T18:51:17.954Z,9.90
2022-09-27T18:55:24.676Z,9.90
2022-09-27T18:59:28.784Z,9.90
2022-09-27T19:03:30.948Z,9.90
2022-09-27T19:07:33.283Z,9.80
2022-09-27T19:11:35.254Z,9.80
2022-09-27T19:15:36.846Z,9.80
2022-09-27T19:19:38.502Z,9.80
2022-09-27T19:23:40.481Z,9.80
2022-09-27T19:27:43.330Z,9.70
2022-09-27T19:31:45.307Z,9.80
2022-09-27T19:35:47.133Z,9.70
2022-09-27T19:39:51.234Z,9.70
2022-09-27T19:43:56.638Z,9.70
2022-09-27T19:47:58.219Z,9.70
2022-09-27T19:52:00.930Z,9.80
2022-09-27T19:56:03.900Z,9.80
2022-09-27T20:00:06.392Z,9.80
2022-09-27T20:04:07.975Z,9.80
2022-09-27T20:08:09.583Z,9.90
2022-09-27T20:12:11.368Z,9.90
2022-09-27T20:16:17.517Z,9.90
2022-09-27T20:20:20.348Z,9.80
2022-09-27T20:24:21.953Z,9.90
2022-09-27T20:28:23.523Z,9.90
2022-09-27T20:32:28.201Z,9.90
2022-09-27T20:36:31.751Z,9.90
2022-09-27T20:40:33.425Z,9.90
2022-09-27T20:44:35.079Z,9.90
2022-09-27T20:48:38.206Z,9.90
2022-09-27T20:52:40.360Z,9.90
2022-09-27T20:56:46.306Z,9.90
2022-09-27T21:00:48.042Z,9.90
2022-09-27T21:04:49.753Z,9.90
2022-09-27T21:08:51.360Z,9.90
2022-09-27T21:12:52.975Z,9.90
2022-09-27T21:16:54.597Z,9.80
2022-09-27T21:20:56.787Z,9.80
2022-09-27T21:24:58.420Z,9.80
2022-09-27T21:29:01.221Z,9.80
2022-09-27T21:33:02.987Z,9.80
2022-09-27T21:37:04.544Z,9.70
2022-09-27T21:41:14.615Z,9.70
2022-09-27T21:45:16.229Z,9.70
2022-09-27T21:49:17.956Z,9.80
2022-09-27T21:53:19.654Z,9.70
2022-09-27T21:57:21.275Z,9.70
2022-09-27T22:01:27.614Z,9.60
2022-09-27T22:05:29.331Z,9.60
2022-09-27T22:09:30.935Z,9.50
2022-09-27T22:13:32.715Z,9.50
2022-09-27T22:17:34.340Z,9.40
2022-09-27T22:21:36.961Z,9.40
2022-09-27T22:25:38.526Z,9.40
2022-09-27T22:29:40.074Z,9.40
2022-09-27T22:33:42.119Z,9.40
2022-09-27T22:37:44.510Z,9.40
2022-09-27T22:41:46.107Z,9.30
2022-09-27T22:45:47.708Z,9.30
2022-09-27T22:49:49.709Z,9.20
2022-09-27T22:53:51.322Z,9.10
2022-09-27T22:57:52.873Z,8.90
2022-09-27T23:01:54.741Z,9.00
2022-09-27T23:06:01.138Z,8.90
2022-09-27T23:10:02.724Z,9.00
2022-09-27T23:14:05.063Z,9.00
2022-09-27T23:18:06.587Z,8.90
2022-09-27T23:22:08.113Z,9.00
2022-09-27T23:26:10.607Z,8.90
2022-09-27T23:30:15.936Z,8.80
2022-09-27T23:34:18.280Z,8.90
2022-09-27T23:38:20.644Z,8.90
2022-09-27T23:42:22.241Z,8.80
2022-09-27T23:46:24.996Z,8.80
2022-09-27T23:50:26.554Z,8.60
2022-09-27T23:54:28.048Z,8.60
2022-09-27T23:58:32.030Z,8.60
